sensor_id;sensor_type;location;lat;lon;timestamp;P1;durP1;ratioP1;P2;durP2;ratioP2
70953;SDS011;58618;47.490;8.736;2023-05-24T00:00:35;13.38;;;7.82;;
70953;SDS011;58618;47.490;8.736;2023-05-24T00:03:22;14.33;;;8.33;;
70953;SDS011;58618;47.490;8.736;2023-05-24T00:06:10;14.10;;;8.10;;
70953;SDS011;58618;47.490;8.736;2023-05-24T00:08:57;14.75;;;8.35;;
70953;SDS011;58618;47.490;8.736;2023-05-24T00:11:44;16.17;;;7.80;;
70953;SDS011;58618;47.490;8.736;2023-05-24T00:14:32;13.48;;;8.05;;
70953;SDS011;58618;47.490;8.736;2023-05-24T00:17:20;14.83;;;8.17;;
70953;SDS011;58618;47.490;8.736;2023-05-24T00:20:09;14.18;;;7.80;;
70953;SDS011;58618;47.490;8.736;2023-05-24T00:22:58;15.82;;;7.80;;
70953;SDS011;58618;47.490;8.736;2023-05-24T00:25:46;13.57;;;7.65;;
70953;SDS011;58618;47.490;8.736;2023-05-24T00:28:34;17.05;;;8.07;;
70953;SDS011;58618;47.490;8.736;2023-05-24T00:31:21;14.83;;;7.70;;
70953;SDS011;58618;47.490;8.736;2023-05-24T00:34:10;13.65;;;7.90;;
70953;SDS011;58618;47.490;8.736;2023-05-24T00:36:57;12.75;;;8.30;;
70953;SDS011;58618;47.490;8.736;2023-05-24T00:39:45;16.70;;;8.00;;
70953;SDS011;58618;47.490;8.736;2023-05-24T00:42:32;19.00;;;8.48;;
70953;SDS011;58618;47.490;8.736;2023-05-24T00:45:20;14.67;;;8.30;;
70953;SDS011;58618;47.490;8.736;2023-05-24T00:48:07;14.25;;;7.78;;
70953;SDS011;58618;47.490;8.736;2023-05-24T00:50:57;18.45;;;8.55;;
70953;SDS011;58618;47.490;8.736;2023-05-24T00:53:45;13.38;;;7.68;;
70953;SDS011;58618;47.490;8.736;2023-05-24T00:56:33;14.77;;;8.38;;
70953;SDS011;58618;47.490;8.736;2023-05-24T00:59:20;13.67;;;8.07;;
70953;SDS011;58618;47.490;8.736;2023-05-24T01:02:08;16.30;;;7.97;;
70953;SDS011;58618;47.490;8.736;2023-05-24T01:04:56;14.15;;;8.13;;
70953;SDS011;58618;47.490;8.736;2023-05-24T01:07:47;14.18;;;7.63;;
70953;SDS011;58618;47.490;8.736;2023-05-24T01:10:42;13.80;;;7.70;;
70953;SDS011;58618;47.490;8.736;2023-05-24T01:13:39;14.17;;;7.90;;
70953;SDS011;58618;47.490;8.736;2023-05-24T01:16:34;15.18;;;8.13;;
70953;SDS011;58618;47.490;8.736;2023-05-24T01:19:38;13.23;;;7.65;;
70953;SDS011;58618;47.490;8.736;2023-05-24T01:22:48;12.32;;;7.60;;
70953;SDS011;58618;47.490;8.736;2023-05-24T01:25:48;14.13;;;7.93;;
70953;SDS011;58618;47.490;8.736;2023-05-24T01:28:48;13.00;;;7.73;;
70953;SDS011;58618;47.490;8.736;2023-05-24T01:31:39;15.07;;;7.53;;
70953;SDS011;58618;47.490;8.736;2023-05-24T01:34:27;15.10;;;8.38;;
70953;SDS011;58618;47.490;8.736;2023-05-24T01:37:15;15.10;;;8.88;;
70953;SDS011;58618;47.490;8.736;2023-05-24T01:40:02;16.00;;;8.80;;
70953;SDS011;58618;47.490;8.736;2023-05-24T01:42:53;14.40;;;8.18;;
70953;SDS011;58618;47.490;8.736;2023-05-24T01:45:48;13.93;;;8.17;;
70953;SDS011;58618;47.490;8.736;2023-05-24T01:48:44;14.52;;;7.78;;
70953;SDS011;58618;47.490;8.736;2023-05-24T01:51:43;16.13;;;8.15;;
70953;SDS011;58618;47.490;8.736;2023-05-24T01:54:36;17.83;;;8.55;;
70953;SDS011;58618;47.490;8.736;2023-05-24T01:57:25;14.30;;;8.35;;
70953;SDS011;58618;47.490;8.736;2023-05-24T02:00:13;12.80;;;7.83;;
70953;SDS011;58618;47.490;8.736;2023-05-24T02:03:02;13.70;;;8.38;;
70953;SDS011;58618;47.490;8.736;2023-05-24T02:05:52;17.17;;;8.52;;
70953;SDS011;58618;47.490;8.736;2023-05-24T02:08:39;14.52;;;8.18;;
70953;SDS011;58618;47.490;8.736;2023-05-24T02:11:26;15.07;;;8.63;;
70953;SDS011;58618;47.490;8.736;2023-05-24T02:14:14;15.23;;;8.40;;
70953;SDS011;58618;47.490;8.736;2023-05-24T02:17:02;12.45;;;7.93;;
70953;SDS011;58618;47.490;8.736;2023-05-24T02:19:49;14.75;;;8.32;;
70953;SDS011;58618;47.490;8.736;2023-05-24T02:22:38;16.20;;;8.60;;
70953;SDS011;58618;47.490;8.736;2023-05-24T02:25:25;15.15;;;8.27;;
70953;SDS011;58618;47.490;8.736;2023-05-24T02:28:13;13.03;;;7.60;;
70953;SDS011;58618;47.490;8.736;2023-05-24T02:31:00;12.98;;;7.40;;
70953;SDS011;58618;47.490;8.736;2023-05-24T02:33:48;16.58;;;8.52;;
70953;SDS011;58618;47.490;8.736;2023-05-24T02:36:35;14.80;;;8.52;;
70953;SDS011;58618;47.490;8.736;2023-05-24T02:39:24;16.05;;;8.02;;
70953;SDS011;58618;47.490;8.736;2023-05-24T02:42:11;16.20;;;7.80;;
70953;SDS011;58618;47.490;8.736;2023-05-24T02:44:58;14.07;;;8.35;;
70953;SDS011;58618;47.490;8.736;2023-05-24T02:47:46;14.48;;;8.13;;
70953;SDS011;58618;47.490;8.736;2023-05-24T02:50:33;15.20;;;8.52;;
70953;SDS011;58618;47.490;8.736;2023-05-24T02:53:21;14.63;;;8.65;;
70953;SDS011;58618;47.490;8.736;2023-05-24T02:56:10;16.57;;;8.50;;
70953;SDS011;58618;47.490;8.736;2023-05-24T02:58:58;15.38;;;8.57;;
70953;SDS011;58618;47.490;8.736;2023-05-24T03:01:45;16.88;;;8.75;;
70953;SDS011;58618;47.490;8.736;2023-05-24T03:04:33;13.68;;;8.07;;
70953;SDS011;58618;47.490;8.736;2023-05-24T03:07:20;15.70;;;8.43;;
70953;SDS011;58618;47.490;8.736;2023-05-24T03:10:08;15.57;;;8.47;;
70953;SDS011;58618;47.490;8.736;2023-05-24T03:12:57;16.38;;;7.95;;
70953;SDS011;58618;47.490;8.736;2023-05-24T03:15:44;16.25;;;8.60;;
70953;SDS011;58618;47.490;8.736;2023-05-24T03:18:31;13.73;;;8.32;;
70953;SDS011;58618;47.490;8.736;2023-05-24T03:21:19;19.98;;;8.25;;
70953;SDS011;58618;47.490;8.736;2023-05-24T03:24:06;15.57;;;8.67;;
70953;SDS011;58618;47.490;8.736;2023-05-24T03:26:54;15.18;;;8.43;;
70953;SDS011;58618;47.490;8.736;2023-05-24T03:29:43;14.35;;;8.50;;
70953;SDS011;58618;47.490;8.736;2023-05-24T03:32:30;16.73;;;8.85;;
70953;SDS011;58618;47.490;8.736;2023-05-24T03:35:17;16.05;;;7.88;;
70953;SDS011;58618;47.490;8.736;2023-05-24T03:38:05;15.17;;;8.00;;
70953;SDS011;58618;47.490;8.736;2023-05-24T03:40:52;13.70;;;7.85;;
70953;SDS011;58618;47.490;8.736;2023-05-24T03:43:40;16.30;;;8.35;;
70953;SDS011;58618;47.490;8.736;2023-05-24T03:46:28;16.17;;;8.32;;
70953;SDS011;58618;47.490;8.736;2023-05-24T03:49:16;16.45;;;8.20;;
70953;SDS011;58618;47.490;8.736;2023-05-24T03:52:03;15.40;;;8.67;;
70953;SDS011;58618;47.490;8.736;2023-05-24T03:54:51;14.82;;;7.97;;
70953;SDS011;58618;47.490;8.736;2023-05-24T03:57:38;15.35;;;8.00;;
70953;SDS011;58618;47.490;8.736;2023-05-24T04:00:26;14.75;;;7.82;;
70953;SDS011;58618;47.490;8.736;2023-05-24T04:03:15;12.65;;;7.70;;
70953;SDS011;58618;47.490;8.736;2023-05-24T04:06:04;15.53;;;7.93;;
70953;SDS011;58618;47.490;8.736;2023-05-24T04:08:52;14.13;;;8.05;;
70953;SDS011;58618;47.490;8.736;2023-05-24T04:11:39;14.70;;;7.85;;
70953;SDS011;58618;47.490;8.736;2023-05-24T04:14:26;15.15;;;8.25;;
70953;SDS011;58618;47.490;8.736;2023-05-24T04:17:14;18.92;;;7.80;;
70953;SDS011;58618;47.490;8.736;2023-05-24T04:20:03;16.47;;;9.03;;
70953;SDS011;58618;47.490;8.736;2023-05-24T04:22:51;16.67;;;8.07;;
70953;SDS011;58618;47.490;8.736;2023-05-24T04:25:38;15.20;;;8.55;;
70953;SDS011;58618;47.490;8.736;2023-05-24T04:28:27;15.93;;;8.32;;
70953;SDS011;58618;47.490;8.736;2023-05-24T04:31:14;16.10;;;8.55;;
70953;SDS011;58618;47.490;8.736;2023-05-24T04:34:02;15.97;;;8.20;;
70953;SDS011;58618;47.490;8.736;2023-05-24T04:36:51;12.82;;;7.72;;
70953;SDS011;58618;47.490;8.736;2023-05-24T04:39:39;16.58;;;8.15;;
70953;SDS011;58618;47.490;8.736;2023-05-24T04:42:26;16.90;;;8.30;;
70953;SDS011;58618;47.490;8.736;2023-05-24T04:45:16;13.13;;;8.00;;
70953;SDS011;58618;47.490;8.736;2023-05-24T04:48:04;18.03;;;8.57;;
70953;SDS011;58618;47.490;8.736;2023-05-24T04:50:52;15.32;;;7.95;;
70953;SDS011;58618;47.490;8.736;2023-05-24T04:53:43;14.95;;;8.15;;
70953;SDS011;58618;47.490;8.736;2023-05-24T04:56:30;15.43;;;8.00;;
70953;SDS011;58618;47.490;8.736;2023-05-24T04:59:18;14.75;;;8.10;;
70953;SDS011;58618;47.490;8.736;2023-05-24T05:02:05;14.63;;;7.87;;
70953;SDS011;58618;47.490;8.736;2023-05-24T05:04:52;15.93;;;7.75;;
70953;SDS011;58618;47.490;8.736;2023-05-24T05:07:40;16.20;;;8.02;;
70953;SDS011;58618;47.490;8.736;2023-05-24T05:10:30;16.35;;;8.20;;
70953;SDS011;58618;47.490;8.736;2023-05-24T05:13:18;16.95;;;8.13;;
70953;SDS011;58618;47.490;8.736;2023-05-24T05:16:06;15.53;;;8.33;;
70953;SDS011;58618;47.490;8.736;2023-05-24T05:18:54;15.23;;;8.57;;
70953;SDS011;58618;47.490;8.736;2023-05-24T05:21:41;14.90;;;8.27;;
70953;SDS011;58618;47.490;8.736;2023-05-24T05:24:28;12.73;;;7.40;;
70953;SDS011;58618;47.490;8.736;2023-05-24T05:27:17;10.77;;;6.97;;
70953;SDS011;58618;47.490;8.736;2023-05-24T05:30:05;13.00;;;7.40;;
70953;SDS011;58618;47.490;8.736;2023-05-24T05:32:53;14.32;;;8.35;;
70953;SDS011;58618;47.490;8.736;2023-05-24T05:35:41;13.52;;;8.15;;
70953;SDS011;58618;47.490;8.736;2023-05-24T05:38:28;14.88;;;8.55;;
70953;SDS011;58618;47.490;8.736;2023-05-24T05:41:16;14.95;;;8.50;;
70953;SDS011;58618;47.490;8.736;2023-05-24T05:44:05;15.83;;;8.70;;
70953;SDS011;58618;47.490;8.736;2023-05-24T05:46:52;13.25;;;7.68;;
70953;SDS011;58618;47.490;8.736;2023-05-24T05:49:40;13.95;;;8.23;;
70953;SDS011;58618;47.490;8.736;2023-05-24T05:52:27;14.15;;;7.97;;
70953;SDS011;58618;47.490;8.736;2023-05-24T05:55:15;14.55;;;8.20;;
70953;SDS011;58618;47.490;8.736;2023-05-24T05:58:02;11.97;;;7.33;;
70953;SDS011;58618;47.490;8.736;2023-05-24T06:00:51;9.68;;;5.93;;
70953;SDS011;58618;47.490;8.736;2023-05-24T06:03:39;9.30;;;5.75;;
70953;SDS011;58618;47.490;8.736;2023-05-24T06:06:26;8.50;;;5.35;;
70953;SDS011;58618;47.490;8.736;2023-05-24T06:09:14;12.02;;;5.85;;
70953;SDS011;58618;47.490;8.736;2023-05-24T06:12:01;9.27;;;5.47;;
70953;SDS011;58618;47.490;8.736;2023-05-24T06:14:49;10.68;;;6.07;;
70953;SDS011;58618;47.490;8.736;2023-05-24T06:17:38;9.45;;;6.00;;
70953;SDS011;58618;47.490;8.736;2023-05-24T06:20:26;10.05;;;6.15;;
70953;SDS011;58618;47.490;8.736;2023-05-24T06:23:14;11.43;;;7.15;;
70953;SDS011;58618;47.490;8.736;2023-05-24T06:26:01;11.10;;;6.40;;
70953;SDS011;58618;47.490;8.736;2023-05-24T06:28:49;10.93;;;6.25;;
70953;SDS011;58618;47.490;8.736;2023-05-24T06:31:36;12.45;;;7.50;;
70953;SDS011;58618;47.490;8.736;2023-05-24T06:34:25;14.73;;;7.93;;
70953;SDS011;58618;47.490;8.736;2023-05-24T06:37:14;12.45;;;7.07;;
70953;SDS011;58618;47.490;8.736;2023-05-24T06:40:01;13.23;;;6.97;;
70953;SDS011;58618;47.490;8.736;2023-05-24T06:42:51;12.43;;;7.53;;
70953;SDS011;58618;47.490;8.736;2023-05-24T06:45:38;12.10;;;6.78;;
70953;SDS011;58618;47.490;8.736;2023-05-24T06:48:26;11.80;;;7.03;;
70953;SDS011;58618;47.490;8.736;2023-05-24T06:51:15;11.70;;;6.75;;
70953;SDS011;58618;47.490;8.736;2023-05-24T06:54:02;10.87;;;6.43;;
70953;SDS011;58618;47.490;8.736;2023-05-24T06:56:50;11.95;;;6.75;;
70953;SDS011;58618;47.490;8.736;2023-05-24T06:59:37;14.88;;;7.60;;
70953;SDS011;58618;47.490;8.736;2023-05-24T07:02:25;12.45;;;6.95;;
70953;SDS011;58618;47.490;8.736;2023-05-24T07:05:13;11.60;;;6.82;;
70953;SDS011;58618;47.490;8.736;2023-05-24T07:08:02;11.93;;;7.03;;
70953;SDS011;58618;47.490;8.736;2023-05-24T07:10:49;10.85;;;6.35;;
70953;SDS011;58618;47.490;8.736;2023-05-24T07:13:38;14.25;;;7.00;;
70953;SDS011;58618;47.490;8.736;2023-05-24T07:16:25;11.32;;;6.55;;
70953;SDS011;58618;47.490;8.736;2023-05-24T07:19:13;11.93;;;6.95;;
70953;SDS011;58618;47.490;8.736;2023-05-24T07:22:00;11.10;;;6.77;;
70953;SDS011;58618;47.490;8.736;2023-05-24T07:24:49;10.35;;;5.95;;
70953;SDS011;58618;47.490;8.736;2023-05-24T07:27:37;9.80;;;5.90;;
70953;SDS011;58618;47.490;8.736;2023-05-24T07:30:24;9.73;;;6.05;;
70953;SDS011;58618;47.490;8.736;2023-05-24T07:33:12;10.13;;;6.10;;
70953;SDS011;58618;47.490;8.736;2023-05-24T07:35:59;9.20;;;5.60;;
70953;SDS011;58618;47.490;8.736;2023-05-24T07:38:47;8.57;;;5.40;;
70953;SDS011;58618;47.490;8.736;2023-05-24T07:41:36;9.20;;;5.70;;
70953;SDS011;58618;47.490;8.736;2023-05-24T07:44:23;9.25;;;5.47;;
70953;SDS011;58618;47.490;8.736;2023-05-24T07:47:10;10.10;;;5.35;;
70953;SDS011;58618;47.490;8.736;2023-05-24T07:49:58;8.47;;;5.67;;
70953;SDS011;58618;47.490;8.736;2023-05-24T07:52:45;11.57;;;6.22;;
70953;SDS011;58618;47.490;8.736;2023-05-24T07:55:33;10.00;;;6.00;;
70953;SDS011;58618;47.490;8.736;2023-05-24T07:58:21;9.05;;;5.53;;
70953;SDS011;58618;47.490;8.736;2023-05-24T08:01:09;9.18;;;5.63;;
70953;SDS011;58618;47.490;8.736;2023-05-24T08:03:56;9.83;;;5.50;;
70953;SDS011;58618;47.490;8.736;2023-05-24T08:06:44;9.95;;;5.53;;
70953;SDS011;58618;47.490;8.736;2023-05-24T08:09:32;9.80;;;5.55;;
70953;SDS011;58618;47.490;8.736;2023-05-24T08:12:20;8.70;;;5.00;;
70953;SDS011;58618;47.490;8.736;2023-05-24T08:15:09;10.10;;;5.93;;
70953;SDS011;58618;47.490;8.736;2023-05-24T08:17:57;10.33;;;5.70;;
70953;SDS011;58618;47.490;8.736;2023-05-24T08:20:44;10.77;;;5.30;;
70953;SDS011;58618;47.490;8.736;2023-05-24T08:23:32;12.57;;;5.53;;
70953;SDS011;58618;47.490;8.736;2023-05-24T08:26:19;8.68;;;4.53;;
70953;SDS011;58618;47.490;8.736;2023-05-24T08:29:07;11.25;;;5.20;;
70953;SDS011;58618;47.490;8.736;2023-05-24T08:31:55;9.13;;;5.63;;
70953;SDS011;58618;47.490;8.736;2023-05-24T08:34:42;10.48;;;5.07;;
70953;SDS011;58618;47.490;8.736;2023-05-24T08:37:30;8.20;;;4.93;;
70953;SDS011;58618;47.490;8.736;2023-05-24T08:40:18;10.30;;;4.85;;
70953;SDS011;58618;47.490;8.736;2023-05-24T08:43:05;10.68;;;5.20;;
70953;SDS011;58618;47.490;8.736;2023-05-24T08:45:56;10.13;;;5.20;;
70953;SDS011;58618;47.490;8.736;2023-05-24T08:48:46;10.40;;;4.70;;
70953;SDS011;58618;47.490;8.736;2023-05-24T08:51:34;7.93;;;4.47;;
70953;SDS011;58618;47.490;8.736;2023-05-24T08:54:23;7.05;;;3.90;;
70953;SDS011;58618;47.490;8.736;2023-05-24T08:57:11;7.95;;;4.65;;
70953;SDS011;58618;47.490;8.736;2023-05-24T09:00:01;7.33;;;3.77;;
70953;SDS011;58618;47.490;8.736;2023-05-24T09:02:50;7.72;;;4.40;;
70953;SDS011;58618;47.490;8.736;2023-05-24T09:05:39;8.18;;;4.57;;
70953;SDS011;58618;47.490;8.736;2023-05-24T09:08:27;9.82;;;5.05;;
70953;SDS011;58618;47.490;8.736;2023-05-24T09:11:15;8.75;;;4.28;;
70953;SDS011;58618;47.490;8.736;2023-05-24T09:14:03;8.93;;;4.83;;
70953;SDS011;58618;47.490;8.736;2023-05-24T09:16:50;9.98;;;5.07;;
70953;SDS011;58618;47.490;8.736;2023-05-24T09:19:38;7.97;;;4.85;;
70953;SDS011;58618;47.490;8.736;2023-05-24T09:22:28;9.25;;;4.70;;
70953;SDS011;58618;47.490;8.736;2023-05-24T09:25:16;7.25;;;4.30;;
70953;SDS011;58618;47.490;8.736;2023-05-24T09:28:05;10.53;;;4.90;;
70953;SDS011;58618;47.490;8.736;2023-05-24T09:30:57;9.52;;;5.10;;
70953;SDS011;58618;47.490;8.736;2023-05-24T09:33:47;8.95;;;4.55;;
70953;SDS011;58618;47.490;8.736;2023-05-24T09:36:34;9.98;;;4.88;;
70953;SDS011;58618;47.490;8.736;2023-05-24T09:39:24;7.50;;;4.18;;
70953;SDS011;58618;47.490;8.736;2023-05-24T09:42:13;8.10;;;4.70;;
70953;SDS011;58618;47.490;8.736;2023-05-24T09:45:02;8.93;;;4.63;;
70953;SDS011;58618;47.490;8.736;2023-05-24T09:47:54;8.68;;;4.50;;
70953;SDS011;58618;47.490;8.736;2023-05-24T09:50:41;8.35;;;4.47;;
70953;SDS011;58618;47.490;8.736;2023-05-24T09:53:30;9.57;;;5.30;;
70953;SDS011;58618;47.490;8.736;2023-05-24T09:56:20;11.00;;;5.20;;
70953;SDS011;58618;47.490;8.736;2023-05-24T09:59:09;9.85;;;4.85;;
70953;SDS011;58618;47.490;8.736;2023-05-24T10:02:01;9.05;;;4.53;;
70953;SDS011;58618;47.490;8.736;2023-05-24T10:04:57;8.70;;;4.65;;
70953;SDS011;58618;47.490;8.736;2023-05-24T10:07:45;6.43;;;4.38;;
70953;SDS011;58618;47.490;8.736;2023-05-24T10:10:33;6.80;;;4.50;;
70953;SDS011;58618;47.490;8.736;2023-05-24T10:13:22;10.07;;;4.68;;
70953;SDS011;58618;47.490;8.736;2023-05-24T10:16:11;7.50;;;4.30;;
70953;SDS011;58618;47.490;8.736;2023-05-24T10:18:59;8.98;;;4.28;;
70953;SDS011;58618;47.490;8.736;2023-05-24T10:21:46;10.38;;;4.50;;
70953;SDS011;58618;47.490;8.736;2023-05-24T10:24:37;9.67;;;4.20;;
70953;SDS011;58618;47.490;8.736;2023-05-24T10:27:27;8.68;;;4.55;;
70953;SDS011;58618;47.490;8.736;2023-05-24T10:30:22;7.90;;;4.50;;
70953;SDS011;58618;47.490;8.736;2023-05-24T10:33:17;7.43;;;4.15;;
70953;SDS011;58618;47.490;8.736;2023-05-24T10:36:08;9.13;;;4.63;;
70953;SDS011;58618;47.490;8.736;2023-05-24T10:38:57;8.53;;;4.20;;
70953;SDS011;58618;47.490;8.736;2023-05-24T10:41:45;8.20;;;4.28;;
70953;SDS011;58618;47.490;8.736;2023-05-24T10:44:32;9.07;;;4.85;;
70953;SDS011;58618;47.490;8.736;2023-05-24T10:47:21;10.82;;;5.38;;
70953;SDS011;58618;47.490;8.736;2023-05-24T10:50:15;8.77;;;5.03;;
70953;SDS011;58618;47.490;8.736;2023-05-24T10:53:10;10.27;;;5.27;;
70953;SDS011;58618;47.490;8.736;2023-05-24T10:55:59;10.88;;;5.30;;
70953;SDS011;58618;47.490;8.736;2023-05-24T10:58:58;9.75;;;5.60;;
70953;SDS011;58618;47.490;8.736;2023-05-24T11:01:52;9.95;;;5.15;;
70953;SDS011;58618;47.490;8.736;2023-05-24T11:04:44;11.10;;;5.43;;
70953;SDS011;58618;47.490;8.736;2023-05-24T11:07:33;11.57;;;5.23;;
70953;SDS011;58618;47.490;8.736;2023-05-24T11:10:28;9.00;;;4.95;;
70953;SDS011;58618;47.490;8.736;2023-05-24T11:13:17;8.52;;;4.82;;
70953;SDS011;58618;47.490;8.736;2023-05-24T11:16:05;10.50;;;5.18;;
70953;SDS011;58618;47.490;8.736;2023-05-24T11:18:53;10.60;;;5.10;;
70953;SDS011;58618;47.490;8.736;2023-05-24T11:21:43;8.23;;;5.47;;
70953;SDS011;58618;47.490;8.736;2023-05-24T11:24:32;8.82;;;5.50;;
70953;SDS011;58618;47.490;8.736;2023-05-24T11:27:20;8.10;;;4.78;;
70953;SDS011;58618;47.490;8.736;2023-05-24T11:30:08;8.82;;;4.70;;
70953;SDS011;58618;47.490;8.736;2023-05-24T11:32:57;9.70;;;5.53;;
70953;SDS011;58618;47.490;8.736;2023-05-24T11:35:46;8.83;;;5.40;;
70953;SDS011;58618;47.490;8.736;2023-05-24T11:38:36;9.75;;;5.50;;
70953;SDS011;58618;47.490;8.736;2023-05-24T11:41:24;10.65;;;5.80;;
70953;SDS011;58618;47.490;8.736;2023-05-24T11:44:15;10.18;;;5.28;;
70953;SDS011;58618;47.490;8.736;2023-05-24T11:47:04;11.02;;;5.45;;
70953;SDS011;58618;47.490;8.736;2023-05-24T11:49:52;11.33;;;5.50;;
70953;SDS011;58618;47.490;8.736;2023-05-24T11:52:40;7.80;;;4.80;;
70953;SDS011;58618;47.490;8.736;2023-05-24T11:55:29;10.65;;;5.47;;
70953;SDS011;58618;47.490;8.736;2023-05-24T11:58:18;10.25;;;5.70;;
70953;SDS011;58618;47.490;8.736;2023-05-24T12:01:21;11.40;;;5.70;;
70953;SDS011;58618;47.490;8.736;2023-05-24T12:04:09;13.40;;;5.93;;
70953;SDS011;58618;47.490;8.736;2023-05-24T12:06:57;9.65;;;5.88;;
70953;SDS011;58618;47.490;8.736;2023-05-24T12:09:45;11.05;;;6.05;;
70953;SDS011;58618;47.490;8.736;2023-05-24T12:12:34;10.82;;;5.53;;
70953;SDS011;58618;47.490;8.736;2023-05-24T12:15:21;11.52;;;5.65;;
70953;SDS011;58618;47.490;8.736;2023-05-24T12:18:16;9.47;;;5.40;;
70953;SDS011;58618;47.490;8.736;2023-05-24T12:21:10;10.15;;;5.70;;
70953;SDS011;58618;47.490;8.736;2023-05-24T12:24:03;8.32;;;5.55;;
70953;SDS011;58618;47.490;8.736;2023-05-24T12:26:56;9.38;;;5.38;;
70953;SDS011;58618;47.490;8.736;2023-05-24T12:29:47;11.98;;;5.72;;
70953;SDS011;58618;47.490;8.736;2023-05-24T12:32:35;10.93;;;5.80;;
70953;SDS011;58618;47.490;8.736;2023-05-24T12:35:23;11.82;;;6.45;;
70953;SDS011;58618;47.490;8.736;2023-05-24T12:38:10;10.07;;;5.85;;
70953;SDS011;58618;47.490;8.736;2023-05-24T12:40:58;10.82;;;6.30;;
70953;SDS011;58618;47.490;8.736;2023-05-24T12:43:46;12.02;;;6.50;;
70953;SDS011;58618;47.490;8.736;2023-05-24T12:46:35;10.83;;;5.73;;
70953;SDS011;58618;47.490;8.736;2023-05-24T12:49:24;12.68;;;6.25;;
70953;SDS011;58618;47.490;8.736;2023-05-24T12:52:12;10.02;;;5.68;;
70953;SDS011;58618;47.490;8.736;2023-05-24T12:54:59;13.20;;;6.60;;
70953;SDS011;58618;47.490;8.736;2023-05-24T12:57:47;12.25;;;6.68;;
70953;SDS011;58618;47.490;8.736;2023-05-24T13:00:38;11.20;;;6.23;;
70953;SDS011;58618;47.490;8.736;2023-05-24T13:03:27;15.80;;;7.25;;
70953;SDS011;58618;47.490;8.736;2023-05-24T13:06:15;14.68;;;6.80;;
70953;SDS011;58618;47.490;8.736;2023-05-24T13:09:02;12.50;;;6.72;;
70953;SDS011;58618;47.490;8.736;2023-05-24T13:11:51;13.77;;;8.00;;
70953;SDS011;58618;47.490;8.736;2023-05-24T13:14:38;11.27;;;6.20;;
70953;SDS011;58618;47.490;8.736;2023-05-24T13:17:26;15.50;;;7.47;;
70953;SDS011;58618;47.490;8.736;2023-05-24T13:20:15;12.65;;;6.90;;
70953;SDS011;58618;47.490;8.736;2023-05-24T13:23:03;15.38;;;6.95;;
70953;SDS011;58618;47.490;8.736;2023-05-24T13:25:51;11.25;;;6.70;;
70953;SDS011;58618;47.490;8.736;2023-05-24T13:28:38;15.03;;;6.93;;
70953;SDS011;58618;47.490;8.736;2023-05-24T13:31:26;11.45;;;5.75;;
70953;SDS011;58618;47.490;8.736;2023-05-24T13:34:13;12.63;;;6.40;;
70953;SDS011;58618;47.490;8.736;2023-05-24T13:37:03;10.48;;;5.95;;
70953;SDS011;58618;47.490;8.736;2023-05-24T13:39:52;17.42;;;6.82;;
70953;SDS011;58618;47.490;8.736;2023-05-24T13:42:40;12.33;;;5.83;;
70953;SDS011;58618;47.490;8.736;2023-05-24T13:45:27;12.02;;;6.38;;
70953;SDS011;58618;47.490;8.736;2023-05-24T13:48:15;13.50;;;6.57;;
70953;SDS011;58618;47.490;8.736;2023-05-24T13:51:03;12.00;;;6.53;;
70953;SDS011;58618;47.490;8.736;2023-05-24T13:53:51;13.73;;;6.55;;
70953;SDS011;58618;47.490;8.736;2023-05-24T13:56:40;10.03;;;5.83;;
70953;SDS011;58618;47.490;8.736;2023-05-24T13:59:29;13.00;;;6.40;;
70953;SDS011;58618;47.490;8.736;2023-05-24T14:02:17;12.55;;;6.00;;
70953;SDS011;58618;47.490;8.736;2023-05-24T14:05:04;10.38;;;5.22;;
70953;SDS011;58618;47.490;8.736;2023-05-24T14:07:52;9.85;;;5.22;;
70953;SDS011;58618;47.490;8.736;2023-05-24T14:10:41;14.83;;;6.80;;
70953;SDS011;58618;47.490;8.736;2023-05-24T14:13:29;12.40;;;6.47;;
70953;SDS011;58618;47.490;8.736;2023-05-24T14:16:17;10.10;;;5.93;;
70953;SDS011;58618;47.490;8.736;2023-05-24T14:19:05;13.90;;;7.07;;
70953;SDS011;58618;47.490;8.736;2023-05-24T14:21:53;12.80;;;5.40;;
70953;SDS011;58618;47.490;8.736;2023-05-24T14:24:41;9.17;;;5.57;;
70953;SDS011;58618;47.490;8.736;2023-05-24T14:27:29;11.55;;;5.80;;
70953;SDS011;58618;47.490;8.736;2023-05-24T14:30:17;10.75;;;5.93;;
70953;SDS011;58618;47.490;8.736;2023-05-24T14:33:04;14.02;;;6.05;;
70953;SDS011;58618;47.490;8.736;2023-05-24T14:35:52;9.32;;;5.32;;
70953;SDS011;58618;47.490;8.736;2023-05-24T14:38:40;11.33;;;5.70;;
70953;SDS011;58618;47.490;8.736;2023-05-24T14:41:27;10.88;;;5.95;;
70953;SDS011;58618;47.490;8.736;2023-05-24T14:44:16;10.32;;;5.85;;
70953;SDS011;58618;47.490;8.736;2023-05-24T14:47:04;8.18;;;5.07;;
70953;SDS011;58618;47.490;8.736;2023-05-24T14:49:51;13.50;;;6.13;;
70953;SDS011;58618;47.490;8.736;2023-05-24T14:52:39;9.43;;;5.63;;
70953;SDS011;58618;47.490;8.736;2023-05-24T14:55:26;12.77;;;5.78;;
70953;SDS011;58618;47.490;8.736;2023-05-24T14:58:14;12.15;;;5.88;;
70953;SDS011;58618;47.490;8.736;2023-05-24T15:01:03;9.50;;;5.97;;
70953;SDS011;58618;47.490;8.736;2023-05-24T15:03:51;12.02;;;6.20;;
70953;SDS011;58618;47.490;8.736;2023-05-24T15:06:38;11.23;;;6.73;;
70953;SDS011;58618;47.490;8.736;2023-05-24T15:09:26;12.50;;;5.72;;
70953;SDS011;58618;47.490;8.736;2023-05-24T15:12:13;10.30;;;5.93;;
70953;SDS011;58618;47.490;8.736;2023-05-24T15:15:00;10.60;;;5.68;;
70953;SDS011;58618;47.490;8.736;2023-05-24T15:17:50;12.38;;;6.30;;
70953;SDS011;58618;47.490;8.736;2023-05-24T15:20:37;12.93;;;6.33;;
70953;SDS011;58618;47.490;8.736;2023-05-24T15:23:25;11.32;;;6.40;;
70953;SDS011;58618;47.490;8.736;2023-05-24T15:26:13;12.77;;;6.93;;
70953;SDS011;58618;47.490;8.736;2023-05-24T15:29:00;11.10;;;6.30;;
70953;SDS011;58618;47.490;8.736;2023-05-24T15:31:49;12.60;;;6.53;;
70953;SDS011;58618;47.490;8.736;2023-05-24T15:34:38;11.10;;;6.63;;
70953;SDS011;58618;47.490;8.736;2023-05-24T15:37:25;14.57;;;6.22;;
70953;SDS011;58618;47.490;8.736;2023-05-24T15:40:13;13.27;;;6.72;;
70953;SDS011;58618;47.490;8.736;2023-05-24T15:43:01;10.38;;;6.22;;
70953;SDS011;58618;47.490;8.736;2023-05-24T15:45:48;12.45;;;5.78;;
70953;SDS011;58618;47.490;8.736;2023-05-24T15:48:35;11.90;;;6.27;;
70953;SDS011;58618;47.490;8.736;2023-05-24T15:51:25;11.93;;;6.93;;
70953;SDS011;58618;47.490;8.736;2023-05-24T15:54:12;12.93;;;6.28;;
70953;SDS011;58618;47.490;8.736;2023-05-24T15:57:00;10.35;;;6.07;;
70953;SDS011;58618;47.490;8.736;2023-05-24T15:59:48;8.05;;;5.30;;
70953;SDS011;58618;47.490;8.736;2023-05-24T16:02:36;11.17;;;5.67;;
70953;SDS011;58618;47.490;8.736;2023-05-24T16:05:23;9.45;;;5.50;;
70953;SDS011;58618;47.490;8.736;2023-05-24T16:08:13;11.57;;;5.45;;
70953;SDS011;58618;47.490;8.736;2023-05-24T16:11:00;9.80;;;5.35;;
70953;SDS011;58618;47.490;8.736;2023-05-24T16:13:52;10.15;;;4.88;;
70953;SDS011;58618;47.490;8.736;2023-05-24T16:16:42;8.70;;;4.87;;
70953;SDS011;58618;47.490;8.736;2023-05-24T16:19:29;8.15;;;4.75;;
70953;SDS011;58618;47.490;8.736;2023-05-24T16:22:16;9.20;;;4.78;;
70953;SDS011;58618;47.490;8.736;2023-05-24T16:25:05;7.90;;;4.53;;
70953;SDS011;58618;47.490;8.736;2023-05-24T16:27:53;8.35;;;4.60;;
70953;SDS011;58618;47.490;8.736;2023-05-24T16:30:41;9.67;;;4.53;;
70953;SDS011;58618;47.490;8.736;2023-05-24T16:33:28;10.27;;;4.78;;
70953;SDS011;58618;47.490;8.736;2023-05-24T16:36:15;9.73;;;4.90;;
70953;SDS011;58618;47.490;8.736;2023-05-24T16:39:03;12.20;;;5.18;;
70953;SDS011;58618;47.490;8.736;2023-05-24T16:41:52;11.20;;;5.70;;
70953;SDS011;58618;47.490;8.736;2023-05-24T16:44:39;10.43;;;4.97;;